createdAt,value
2019-03-20T00:00:07.769Z,14.50
2019-03-20T00:02:38.414Z,10.93
2019-03-20T00:05:09.130Z,8.63
2019-03-20T00:07:39.797Z,11.10
2019-03-20T00:10:10.865Z,7.30
2019-03-20T00:12:41.579Z,7.87
2019-03-20T00:15:12.565Z,11.33
2019-03-20T00:17:43.233Z,8.13
2019-03-20T00:20:14.082Z,12.00
2019-03-20T00:22:44.825Z,14.27
2019-03-20T00:25:15.420Z,5.77
2019-03-20T00:27:46.078Z,11.47
2019-03-20T00:30:16.738Z,9.13
2019-03-20T00:32:47.571Z,12.30
2019-03-20T00:35:18.226Z,5.60
2019-03-20T00:37:48.836Z,9.13
2019-03-20T00:40:19.578Z,14.43
2019-03-20T00:42:50.255Z,8.33
2019-03-20T00:45:20.981Z,10.70
2019-03-20T00:47:51.687Z,14.87
2019-03-20T00:50:22.487Z,9.10
2019-03-20T00:52:53.181Z,6.67
2019-03-20T00:55:23.926Z,7.47
2019-03-20T00:57:54.685Z,5.80
2019-03-20T01:00:25.903Z,9.47
2019-03-20T01:02:56.567Z,15.20
2019-03-20T01:05:27.424Z,6.83
2019-03-20T01:07:58.149Z,15.80
2019-03-20T01:10:28.905Z,10.90
2019-03-20T01:12:59.661Z,6.53
2019-03-20T01:15:30.407Z,11.40
2019-03-20T01:18:01.093Z,12.47
2019-03-20T01:20:31.860Z,8.70
2019-03-20T01:23:02.597Z,9.97
2019-03-20T01:25:35.181Z,10.13
2019-03-20T01:28:05.739Z,14.87
2019-03-20T01:30:37.589Z,10.60
2019-03-20T01:33:09.805Z,9.83
2019-03-20T01:35:40.681Z,10.57
2019-03-20T01:38:11.405Z,9.60
2019-03-20T01:40:42.203Z,8.67
2019-03-20T01:43:12.917Z,10.30
2019-03-20T01:45:43.643Z,9.83
2019-03-20T01:48:14.399Z,8.37
2019-03-20T01:50:45.087Z,7.70
2019-03-20T01:53:15.804Z,7.90
2019-03-20T01:55:46.518Z,8.33
2019-03-20T01:58:17.304Z,10.77
2019-03-20T02:00:48.024Z,12.47
2019-03-20T02:03:18.748Z,7.03
2019-03-20T02:05:49.493Z,8.93
2019-03-20T02:08:20.255Z,15.27
2019-03-20T02:10:50.966Z,8.47
2019-03-20T02:13:21.753Z,8.93
2019-03-20T02:15:52.489Z,11.57
2019-03-20T02:18:23.245Z,8.20
2019-03-20T02:20:53.961Z,7.20
2019-03-20T02:23:24.717Z,11.27
2019-03-20T02:25:55.403Z,6.27
2019-03-20T02:28:26.190Z,7.67
2019-03-20T02:30:56.908Z,10.33
2019-03-20T02:33:27.642Z,9.40
2019-03-20T02:35:58.328Z,5.50
2019-03-20T02:38:29.045Z,6.57
2019-03-20T02:40:59.907Z,10.20
2019-03-20T02:43:30.679Z,8.23
2019-03-20T02:46:01.379Z,7.03
2019-03-20T02:48:32.131Z,7.07
2019-03-20T02:51:02.863Z,11.10
2019-03-20T02:53:33.673Z,10.53
2019-03-20T02:56:04.484Z,8.23
2019-03-20T02:58:35.187Z,8.77
2019-03-20T03:01:05.942Z,9.87
2019-03-20T03:03:36.688Z,11.27
2019-03-20T03:06:07.689Z,8.83
2019-03-20T03:08:38.631Z,10.10
2019-03-20T03:11:09.366Z,6.73
2019-03-20T03:13:40.094Z,10.27
2019-03-20T03:16:10.849Z,14.17
2019-03-20T03:18:41.587Z,12.50
2019-03-20T03:21:12.382Z,12.43
2019-03-20T03:23:43.109Z,8.70
2019-03-20T03:26:13.855Z,7.93
2019-03-20T03:28:44.534Z,16.07
2019-03-20T03:31:15.298Z,9.80
2019-03-20T03:33:46.035Z,12.40
2019-03-20T03:36:21.641Z,10.93
2019-03-20T03:38:49.127Z,10.37
2019-03-20T03:41:19.913Z,9.10
2019-03-20T03:43:50.589Z,12.07
2019-03-20T03:46:21.331Z,5.93
2019-03-20T03:48:52.022Z,11.00
2019-03-20T03:51:22.711Z,9.70
2019-03-20T03:53:53.477Z,11.87
2019-03-20T03:56:24.181Z,7.03
2019-03-20T03:58:54.928Z,9.93
2019-03-20T04:01:25.647Z,10.37
2019-03-20T04:03:56.420Z,9.97
2019-03-20T04:06:35.530Z,8.70
2019-03-20T04:08:59.533Z,12.67
2019-03-20T04:11:30.208Z,8.10
2019-03-20T04:14:00.987Z,8.03
2019-03-20T04:16:31.722Z,8.03
2019-03-20T04:19:02.477Z,10.77
2019-03-20T04:21:33.217Z,9.67
2019-03-20T04:24:03.962Z,11.43
2019-03-20T04:26:34.657Z,7.17
2019-03-20T04:29:05.663Z,11.00
2019-03-20T04:31:36.381Z,10.83
2019-03-20T04:34:07.274Z,10.53
2019-03-20T04:36:47.116Z,11.10
2019-03-20T04:39:10.379Z,13.97
2019-03-20T04:41:41.136Z,9.10
2019-03-20T04:44:11.889Z,11.43
2019-03-20T04:46:42.596Z,15.60
2019-03-20T04:49:13.383Z,9.40
2019-03-20T04:51:44.083Z,7.20
2019-03-20T04:54:14.797Z,13.30
2019-03-20T04:56:45.510Z,7.27
2019-03-20T04:59:16.288Z,10.63
2019-03-20T05:01:46.994Z,7.67
2019-03-20T05:04:17.693Z,7.17
2019-03-20T05:06:58.174Z,12.20
2019-03-20T05:09:20.803Z,9.90
2019-03-20T05:11:51.519Z,7.13
2019-03-20T05:14:22.255Z,7.97
2019-03-20T05:16:52.992Z,15.23
2019-03-20T05:19:23.678Z,11.37
2019-03-20T05:21:54.435Z,9.43
2019-03-20T05:24:25.121Z,11.07
2019-03-20T05:26:55.897Z,6.17
2019-03-20T05:29:26.573Z,8.43
2019-03-20T05:31:57.278Z,5.83
2019-03-20T05:34:27.925Z,7.13
2019-03-20T05:37:09.603Z,14.77
2019-03-20T05:39:30.988Z,11.27
2019-03-20T05:42:01.768Z,10.57
2019-03-20T05:44:32.522Z,12.63
2019-03-20T05:47:03.281Z,4.33
2019-03-20T05:49:33.996Z,8.13
2019-03-20T05:52:04.749Z,8.73
2019-03-20T05:54:35.486Z,13.30
2019-03-20T05:57:06.294Z,10.53
2019-03-20T05:59:37.007Z,7.37
2019-03-20T06:02:07.849Z,8.97
2019-03-20T06:04:38.601Z,6.90
2019-03-20T06:07:09.358Z,9.77
2019-03-20T06:09:40.063Z,9.63
2019-03-20T06:12:10.779Z,5.87
2019-03-20T06:14:41.435Z,7.60
2019-03-20T06:17:12.212Z,8.80
2019-03-20T06:19:42.939Z,6.03
2019-03-20T06:22:13.685Z,6.03
2019-03-20T06:24:44.451Z,5.03
2019-03-20T06:27:15.193Z,9.03
2019-03-20T06:29:45.925Z,9.37
2019-03-20T06:32:17.020Z,4.80
2019-03-20T06:34:48.980Z,13.10
2019-03-20T06:37:19.752Z,4.73
2019-03-20T06:39:50.539Z,7.87
2019-03-20T06:42:21.286Z,9.20
2019-03-20T06:44:51.964Z,7.07
2019-03-20T06:47:22.661Z,7.27
2019-03-20T06:49:53.373Z,10.53
2019-03-20T06:52:24.079Z,9.53
2019-03-20T06:54:54.776Z,4.80
2019-03-20T06:57:25.503Z,10.97
2019-03-20T07:00:40.049Z,7.67
2019-03-20T07:03:14.855Z,6.47
2019-03-20T07:06:27.853Z,4.27
2019-03-20T07:09:15.149Z,9.53
2019-03-20T07:11:46.071Z,7.77
2019-03-20T07:14:16.827Z,9.53
2019-03-20T07:16:47.513Z,9.20
2019-03-20T07:19:18.298Z,6.53
2019-03-20T07:21:49.024Z,7.20
2019-03-20T07:24:19.940Z,7.47
2019-03-20T07:26:50.697Z,6.27
2019-03-20T07:29:21.443Z,9.10
2019-03-20T07:31:52.209Z,14.80
2019-03-20T07:34:22.956Z,10.07
2019-03-20T07:36:53.755Z,13.13
2019-03-20T07:39:24.547Z,12.57
2019-03-20T07:41:55.244Z,15.20
2019-03-20T07:44:26.020Z,11.77
2019-03-20T07:46:56.795Z,9.23
2019-03-20T07:49:27.522Z,9.00
2019-03-20T07:51:58.273Z,8.77
2019-03-20T07:54:28.978Z,8.83
2019-03-20T07:56:59.782Z,8.30
2019-03-20T07:59:30.487Z,14.67
2019-03-20T08:02:01.233Z,7.67
2019-03-20T08:04:31.952Z,12.50
2019-03-20T08:07:02.745Z,7.23
2019-03-20T08:09:33.535Z,5.50
2019-03-20T08:12:04.289Z,7.90
2019-03-20T08:14:35.034Z,11.50
2019-03-20T08:17:05.771Z,7.27
2019-03-20T08:19:36.459Z,10.67
2019-03-20T08:22:07.243Z,9.83
2019-03-20T08:24:37.935Z,9.37
2019-03-20T08:27:08.705Z,12.63
2019-03-20T08:29:39.453Z,9.33
2019-03-20T08:32:10.321Z,8.73
2019-03-20T08:34:41.054Z,10.80
2019-03-20T08:37:11.800Z,11.53
2019-03-20T08:39:42.527Z,35.27
2019-03-20T08:42:13.344Z,20.83
2019-03-20T08:44:44.089Z,41.10
2019-03-20T08:47:14.865Z,54.37
2019-03-20T08:49:45.583Z,32.73
2019-03-20T08:52:16.368Z,41.97
2019-03-20T08:54:47.093Z,58.83
2019-03-20T08:57:17.931Z,52.63
2019-03-20T08:59:48.665Z,60.20
2019-03-20T09:02:19.423Z,30.83
2019-03-20T09:04:50.158Z,7.10
2019-03-20T09:07:20.934Z,23.47
2019-03-20T09:09:52.041Z,12.90
2019-03-20T09:12:22.820Z,56.33
2019-03-20T09:14:53.594Z,31.50
2019-03-20T09:17:24.380Z,38.60
2019-03-20T09:19:55.132Z,28.13
2019-03-20T09:22:25.881Z,25.67
2019-03-20T09:24:56.662Z,12.77
2019-03-20T09:27:27.404Z,9.57
2019-03-20T09:29:58.121Z,6.97
2019-03-20T09:32:28.846Z,7.40
2019-03-20T09:34:59.616Z,8.30
2019-03-20T09:37:30.370Z,7.23
2019-03-20T09:40:01.137Z,8.13
2019-03-20T09:42:31.842Z,5.83
2019-03-20T09:45:02.637Z,7.00
2019-03-20T09:47:33.354Z,8.70
2019-03-20T09:50:04.223Z,5.53
2019-03-20T09:52:34.986Z,7.53
2019-03-20T09:55:05.943Z,6.90
2019-03-20T09:57:36.689Z,8.23
2019-03-20T10:00:16.788Z,10.30
2019-03-20T10:02:47.524Z,4.83
2019-03-20T10:05:18.375Z,6.67
2019-03-20T10:07:49.099Z,8.50
2019-03-20T10:10:21.253Z,9.03
2019-03-20T10:12:51.972Z,8.30
2019-03-20T10:15:22.775Z,10.47
2019-03-20T10:17:53.491Z,9.40
2019-03-20T10:20:24.537Z,4.65
2019-03-20T10:22:55.376Z,6.35
2019-03-20T10:25:26.141Z,5.95
2019-03-20T10:27:56.878Z,7.15
2019-03-20T10:30:27.663Z,4.77
2019-03-20T10:32:58.447Z,7.60
2019-03-20T10:35:29.156Z,7.30
2019-03-20T10:37:59.852Z,6.30
2019-03-20T10:40:30.577Z,8.00
2019-03-20T10:43:01.333Z,12.67
2019-03-20T10:45:32.120Z,8.93
2019-03-20T10:48:02.836Z,8.87
2019-03-20T10:50:33.635Z,5.87
2019-03-20T10:53:04.329Z,8.10
2019-03-20T10:55:35.075Z,7.97
2019-03-20T10:58:05.879Z,7.03
2019-03-20T11:00:36.580Z,9.10
2019-03-20T11:03:07.313Z,5.13
2019-03-20T11:05:37.994Z,9.83
2019-03-20T11:08:08.845Z,7.30
2019-03-20T11:10:39.653Z,4.13
2019-03-20T11:13:10.364Z,4.40
2019-03-20T11:15:41.121Z,4.93
2019-03-20T11:18:11.905Z,4.40
2019-03-20T11:20:42.573Z,6.03
2019-03-20T11:23:13.273Z,3.40
2019-03-20T11:25:44.069Z,5.43
2019-03-20T11:28:14.794Z,4.33
2019-03-20T11:30:45.553Z,4.13
2019-03-20T11:33:16.264Z,4.57
2019-03-20T11:35:47.006Z,3.10
2019-03-20T11:38:17.771Z,5.03
2019-03-20T11:40:48.547Z,8.17
2019-03-20T11:43:19.287Z,3.60
2019-03-20T11:45:50.099Z,4.73
2019-03-20T11:48:20.829Z,4.37
2019-03-20T11:50:51.603Z,3.43
2019-03-20T11:53:22.252Z,5.50
2019-03-20T11:55:52.994Z,8.27
2019-03-20T11:58:23.750Z,8.17
2019-03-20T12:00:54.467Z,8.43
2019-03-20T12:03:25.233Z,4.70
2019-03-20T12:05:55.999Z,6.20
2019-03-20T12:08:26.694Z,4.97
2019-03-20T12:10:58.624Z,3.97
2019-03-20T12:13:29.548Z,4.27
2019-03-20T12:16:00.313Z,3.73
2019-03-20T12:18:31.039Z,8.27
2019-03-20T12:21:01.766Z,6.77
2019-03-20T12:23:33.798Z,5.13
2019-03-20T12:26:04.969Z,9.57
2019-03-20T12:28:35.776Z,7.67
2019-03-20T12:31:06.839Z,7.67
2019-03-20T12:33:37.588Z,9.60
2019-03-20T12:36:08.314Z,8.80
2019-03-20T12:38:39.071Z,7.60
2019-03-20T12:41:09.757Z,5.27
2019-03-20T12:43:40.546Z,5.07
2019-03-20T12:46:11.249Z,6.80
2019-03-20T12:48:42.005Z,10.13
2019-03-20T12:51:12.752Z,4.03
2019-03-20T12:53:43.488Z,4.70
2019-03-20T12:56:14.191Z,5.30
2019-03-20T12:58:45.001Z,5.30
2019-03-20T13:01:15.738Z,6.03
2019-03-20T13:03:46.483Z,6.17
2019-03-20T13:06:17.249Z,4.10
2019-03-20T13:08:48.016Z,4.73
2019-03-20T13:11:18.723Z,6.47
2019-03-20T13:13:49.520Z,6.78
2019-03-20T13:16:20.282Z,5.42
2019-03-20T13:18:51.007Z,3.33
2019-03-20T13:21:21.757Z,3.75
2019-03-20T13:23:52.523Z,4.45
2019-03-20T13:26:23.259Z,4.47
2019-03-20T13:28:54.068Z,4.10
2019-03-20T13:31:24.742Z,6.35
2019-03-20T13:33:55.615Z,4.90
2019-03-20T13:36:26.394Z,6.42
2019-03-20T13:38:57.180Z,4.92
2019-03-20T13:41:27.927Z,8.13
2019-03-20T13:43:58.692Z,4.30
2019-03-20T13:46:29.396Z,4.20
2019-03-20T13:49:00.147Z,6.72
2019-03-20T13:51:30.882Z,4.43
2019-03-20T13:54:01.611Z,4.93
2019-03-20T13:56:33.196Z,7.07
2019-03-20T13:59:04.002Z,6.03
2019-03-20T14:01:34.737Z,4.57
2019-03-20T14:04:05.484Z,4.67
2019-03-20T14:06:36.250Z,3.97
2019-03-20T14:09:08.728Z,7.93
2019-03-20T14:11:39.454Z,4.10
2019-03-20T14:14:10.259Z,4.73
2019-03-20T14:16:40.966Z,4.57
2019-03-20T14:19:11.768Z,6.87
2019-03-20T14:21:42.468Z,5.57
2019-03-20T14:24:13.276Z,5.47
2019-03-20T14:26:43.980Z,10.03
2019-03-20T14:29:14.777Z,16.73
2019-03-20T14:31:45.544Z,6.00
2019-03-20T14:34:16.320Z,7.07
2019-03-20T14:36:47.075Z,5.60
2019-03-20T14:39:17.822Z,7.07
2019-03-20T14:41:48.577Z,5.33
2019-03-20T14:44:19.355Z,5.93
2019-03-20T14:46:50.121Z,5.27
2019-03-20T14:49:20.821Z,5.90
2019-03-20T14:51:51.727Z,6.50
2019-03-20T14:54:22.420Z,4.53
2019-03-20T14:56:53.196Z,9.43
2019-03-20T14:59:24.203Z,10.60
2019-03-20T15:01:54.969Z,7.83
2019-03-20T15:04:25.647Z,8.43
2019-03-20T15:07:14.966Z,8.00
2019-03-20T15:10:05.016Z,8.57
2019-03-20T15:12:53.668Z,6.77
2019-03-20T15:15:49.402Z,7.30
2019-03-20T15:18:38.131Z,8.03
2019-03-20T15:21:27.301Z,5.97
2019-03-20T15:24:16.200Z,6.67
2019-03-20T15:27:05.305Z,9.00
2019-03-20T15:29:53.857Z,8.27
2019-03-20T15:32:42.574Z,5.77
2019-03-20T15:35:31.174Z,6.67
2019-03-20T15:38:19.894Z,9.13
2019-03-20T15:41:14.101Z,6.80
2019-03-20T15:44:34.375Z,7.23
2019-03-20T15:47:23.847Z,9.07
2019-03-20T15:50:14.278Z,5.67
2019-03-20T15:53:03.572Z,6.93
2019-03-20T15:55:52.251Z,8.40
2019-03-20T15:58:41.330Z,7.90
2019-03-20T16:01:30.491Z,7.57
2019-03-20T16:04:19.273Z,7.07
2019-03-20T16:07:07.752Z,9.03
2019-03-20T16:09:56.618Z,7.10
2019-03-20T16:12:45.235Z,7.67
2019-03-20T16:15:34.071Z,6.03
2019-03-20T16:18:23.697Z,8.70
2019-03-20T16:21:13.027Z,6.27
2019-03-20T16:24:01.576Z,4.97
2019-03-20T16:26:50.299Z,9.67
2019-03-20T16:29:39.710Z,11.37
2019-03-20T16:32:28.759Z,5.87
2019-03-20T16:35:18.194Z,5.13
2019-03-20T16:38:07.202Z,4.33
2019-03-20T16:40:56.631Z,5.43
2019-03-20T16:43:45.822Z,7.47
2019-03-20T16:46:34.863Z,6.93
2019-03-20T16:49:23.804Z,7.63
2019-03-20T16:52:12.703Z,8.50
2019-03-20T16:55:01.189Z,4.47
2019-03-20T16:57:50.517Z,6.07
2019-03-20T17:00:39.505Z,8.27
2019-03-20T17:03:28.497Z,7.63
2019-03-20T17:06:17.979Z,3.47
2019-03-20T17:09:07.960Z,5.07
2019-03-20T17:11:56.950Z,5.77
2019-03-20T17:14:46.273Z,8.97
2019-03-20T17:17:35.351Z,8.47
2019-03-20T17:20:24.723Z,10.30
2019-03-20T17:23:13.725Z,7.37
2019-03-20T17:26:02.667Z,7.30
2019-03-20T17:28:51.733Z,9.57
2019-03-20T17:31:40.376Z,8.30
2019-03-20T17:34:30.587Z,9.53
2019-03-20T17:37:19.627Z,3.30
2019-03-20T17:40:10.983Z,4.53
2019-03-20T17:43:00.609Z,8.50
2019-03-20T17:45:49.259Z,9.63
2019-03-20T17:48:38.340Z,4.97
2019-03-20T17:51:27.511Z,6.67
2019-03-20T17:54:16.615Z,6.60
2019-03-20T17:57:05.925Z,9.13
2019-03-20T17:59:54.557Z,5.70
2019-03-20T18:02:43.178Z,6.60
2019-03-20T18:05:31.815Z,12.30
2019-03-20T18:08:20.845Z,8.20
2019-03-20T18:11:09.947Z,6.40
2019-03-20T18:13:58.552Z,8.07
2019-03-20T18:16:47.031Z,14.13
2019-03-20T18:19:36.579Z,10.47
2019-03-20T18:22:25.088Z,10.57
2019-03-20T18:25:14.668Z,12.20
2019-03-20T18:28:03.843Z,6.97
2019-03-20T18:30:52.699Z,6.00
2019-03-20T18:33:42.052Z,10.33
2019-03-20T18:36:30.672Z,11.20
2019-03-20T18:39:20.697Z,10.80
2019-03-20T18:42:10.077Z,10.70
2019-03-20T18:44:59.498Z,13.00
2019-03-20T18:47:48.816Z,12.10
2019-03-20T18:50:37.777Z,14.67
2019-03-20T18:53:26.447Z,13.33
2019-03-20T18:56:15.202Z,13.37
2019-03-20T18:59:04.033Z,16.67
2019-03-20T19:01:53.050Z,14.60
2019-03-20T19:04:42.331Z,18.10
2019-03-20T19:07:30.881Z,14.10
2019-03-20T19:10:20.229Z,14.97
2019-03-20T19:13:09.196Z,18.33
2019-03-20T19:15:58.274Z,14.70
2019-03-20T19:18:47.635Z,18.25
2019-03-20T19:21:36.338Z,15.83
2019-03-20T19:24:25.764Z,14.60
2019-03-20T19:27:14.757Z,13.90
2019-03-20T19:30:03.587Z,15.67
2019-03-20T19:32:52.157Z,16.23
2019-03-20T19:35:41.481Z,20.83
2019-03-20T19:38:34.904Z,18.77
2019-03-20T19:41:20.320Z,23.40
2019-03-20T19:44:09.427Z,19.10
2019-03-20T19:46:58.832Z,15.43
2019-03-20T19:49:47.422Z,19.10
2019-03-20T19:52:36.500Z,16.07
2019-03-20T19:55:25.868Z,17.63
2019-03-20T19:58:15.027Z,16.57
2019-03-20T20:01:04.367Z,18.23
2019-03-20T20:03:53.998Z,19.03
2019-03-20T20:06:42.811Z,24.00
2019-03-20T20:09:32.001Z,22.00
2019-03-20T20:12:30.833Z,21.13
2019-03-20T20:15:13.900Z,18.13
2019-03-20T20:18:03.063Z,18.37
2019-03-20T20:20:52.044Z,18.60
2019-03-20T20:23:41.644Z,18.60
2019-03-20T20:26:30.453Z,22.17
2019-03-20T20:29:19.603Z,24.63
2019-03-20T20:32:08.526Z,22.80
2019-03-20T20:34:57.527Z,26.73
2019-03-20T20:37:46.130Z,23.53
2019-03-20T20:40:35.338Z,24.13
2019-03-20T20:43:24.288Z,24.03
2019-03-20T20:46:13.700Z,18.60
2019-03-20T20:49:02.391Z,21.27
2019-03-20T20:51:51.382Z,24.53
2019-03-20T20:54:40.420Z,23.67
2019-03-20T20:57:28.983Z,20.47
2019-03-20T21:00:19.213Z,17.63
2019-03-20T21:03:08.265Z,23.13
2019-03-20T21:05:57.154Z,20.20
2019-03-20T21:08:46.358Z,27.93
2019-03-20T21:11:35.469Z,26.03
2019-03-20T21:14:24.017Z,22.40
2019-03-20T21:17:22.448Z,22.13
2019-03-20T21:20:11.820Z,23.20
2019-03-20T21:23:36.950Z,26.30
2019-03-20T21:26:26.662Z,20.47
2019-03-20T21:29:35.746Z,22.93
2019-03-20T21:32:37.380Z,22.83
2019-03-20T21:36:16.904Z,25.30
2019-03-20T21:39:07.844Z,22.50
2019-03-20T21:43:06.814Z,27.73
2019-03-20T21:46:53.138Z,20.77
2019-03-20T21:49:42.299Z,23.13
2019-03-20T21:52:32.280Z,22.40
2019-03-20T21:55:58.230Z,23.50
2019-03-20T21:59:19.287Z,25.10
2019-03-20T22:02:42.081Z,24.63
2019-03-20T22:06:14.258Z,26.83
2019-03-20T22:09:30.000Z,24.17
2019-03-20T22:12:42.642Z,19.10
2019-03-20T22:15:52.338Z,22.47
2019-03-20T22:19:22.799Z,22.80
2019-03-20T22:22:59.092Z,23.57
2019-03-20T22:26:10.678Z,24.50
2019-03-20T22:29:29.015Z,22.43
2019-03-20T22:32:51.497Z,22.83
2019-03-20T22:35:50.339Z,24.90
2019-03-20T22:39:33.981Z,26.60
2019-03-20T22:42:31.445Z,25.77
2019-03-20T22:46:12.549Z,23.27
2019-03-20T22:49:44.429Z,23.17
2019-03-20T22:53:21.883Z,16.40
2019-03-20T22:56:43.507Z,16.20
2019-03-20T22:59:33.201Z,26.03
2019-03-20T23:02:52.399Z,20.03
2019-03-20T23:05:41.651Z,17.67
2019-03-20T23:08:31.251Z,15.03
2019-03-20T23:11:20.193Z,18.27
2019-03-20T23:14:09.704Z,19.83
2019-03-20T23:16:59.025Z,20.70
2019-03-20T23:19:49.145Z,25.63
2019-03-20T23:22:38.686Z,26.37
2019-03-20T23:25:27.939Z,27.50
2019-03-20T23:28:17.158Z,25.53
2019-03-20T23:31:07.011Z,19.93
2019-03-20T23:33:56.790Z,26.07
2019-03-20T23:36:46.642Z,21.47
2019-03-20T23:39:36.115Z,22.50
2019-03-20T23:42:26.597Z,22.53
2019-03-20T23:45:17.264Z,18.87
2019-03-20T23:48:17.168Z,20.80
2019-03-20T23:51:10.050Z,22.90
2019-03-20T23:53:59.600Z,21.97
2019-03-20T23:56:49.173Z,20.13
2019-03-20T23:59:38.474Z,24.93
